Eastern Wv Regional Shepherd Field
KMRB : now visible

Airfield :











YOU CAN JOIN US ON...

 
LOGIN :

Register | Disclaimer

   EN    FR    IT 

 









Legend :    VFR   Marginal VFR   IFR   Intensive IFR   Very Intensive IFR
Visi :
Ceiling :
>= 8 km
>= 3000ft
5 to 8 km
1000 to 3000 ft
1500m to 5 km
500 to 1000 ft
800 to 1500m
200 to 500 ft
< 800m
< 200 ft
Symbols :   Thunderstorms  Fog  Heavy snow  Heavy precipitations  Wind > 20 kt






- Airport Elevation : 565 ft


KMRB - Eastern Wv Regional Shepherd Field

CURRENT METAR :
  • 271553Z 15003KT 10SM SCT120 21/19 A2971 RMK AO2 SLP059 T02110189

EXPIRED METARs :
  • 271453Z 00000KT 10SM SCT095 BKN120 21/18 A2973 RMK AO2 SLP063 T02060183 55004
  • 271353Z 00000KT 10SM FEW095 19/18 A2972 RMK AO2 SLP061 T01940178
  • 271253Z 18003KT 10SM SCT110 18/17 A2974 RMK AO2 SLP066 T01830172
  • 271153Z 13004KT 10SM CLR 18/17 A2974 RMK AO2 SLP067 70019 T01780172 10178 20167 58008

TAF KMRB
Valid from the 27 at 12:00 until the 28 at 12:00 UTC


271123Z 2712/2812 18004KT P6SM OVC100
FM271500 18013G20KT P6SM BKN050
FM271700 19011G18KT P6SM -SHRA VCTS BKN035CB
FM272000 24007KT P6SM SCT120
FM280000 24005KT P6SM FEW250
KZDC FIR / North America



MET'MAP, your aeronautical weather chart ! - Copyright ORBIFLY December 2007 - Disclaimer

ORBIFLY MET'MAP TEAM :

Programming & Development : Alexandra Zaïnal
Original concept : Baudouin d'Aumeries
Technical & hardware support : Manuel Goepfert
Assistance : Marc-Olivier Méhu




SOURCES & CREDITS :

   NOAA       Earth
Advisory